createdAt,value
2022-11-17T00:00:35.082Z,76982.13
2022-11-17T00:03:06.285Z,76986.16
2022-11-17T00:05:35.714Z,76990.22
2022-11-17T00:08:02.735Z,76994.28
2022-11-17T00:10:29.912Z,76998.34
2022-11-17T00:13:15.869Z,77002.41
2022-11-17T00:15:44.630Z,77014.56
2022-11-17T00:18:30.589Z,77018.63
2022-11-17T00:21:16.838Z,77014.56
2022-11-17T00:23:47.282Z,77018.63
2022-11-17T00:26:34.782Z,77014.56
2022-11-17T00:29:05.358Z,77018.63
2022-11-17T00:31:52.815Z,77026.72
2022-11-17T00:34:21.815Z,77030.78
2022-11-17T00:36:50.156Z,77030.78
2022-11-17T00:39:19.244Z,77030.78
2022-11-17T00:41:46.609Z,77034.84
2022-11-17T00:44:14.545Z,77044.97
2022-11-17T00:46:42.540Z,77055.09
2022-11-17T00:49:10.824Z,77055.09
2022-11-17T00:51:39.026Z,77055.09
2022-11-17T00:54:07.180Z,77055.09
2022-11-17T00:56:34.515Z,77059.16
2022-11-17T00:59:01.907Z,77063.22
2022-11-17T01:01:30.471Z,77059.16
2022-11-17T01:04:03.557Z,77061.19
2022-11-17T01:06:42.890Z,77059.16
2022-11-17T01:09:19.772Z,77075.38
2022-11-17T01:11:49.021Z,77059.16
2022-11-17T01:14:20.293Z,77071.31
2022-11-17T01:16:47.369Z,77075.38
2022-11-17T01:19:15.463Z,77079.44
2022-11-17T01:21:43.395Z,77085.50
2022-11-17T01:24:11.937Z,77089.56
2022-11-17T01:26:40.250Z,77089.56
2022-11-17T01:29:09.194Z,77091.59
2022-11-17T01:31:39.412Z,77097.69
2022-11-17T01:34:07.577Z,77099.72
2022-11-17T01:36:59.186Z,77095.66
2022-11-17T01:39:28.756Z,77099.72
2022-11-17T01:41:56.835Z,77107.81
2022-11-17T01:44:41.683Z,77103.75
2022-11-17T01:47:26.188Z,77115.94
2022-11-17T01:50:04.215Z,77107.81
2022-11-17T01:52:34.616Z,77107.81
2022-11-17T01:55:03.483Z,77119.97
2022-11-17T01:57:42.260Z,77124.03
2022-11-17T02:00:10.841Z,77119.97
2022-11-17T02:02:40.218Z,77119.97
2022-11-17T02:05:22.142Z,77117.94
2022-11-17T02:07:53.333Z,77124.03
2022-11-17T02:10:20.400Z,77119.97
2022-11-17T02:12:48.669Z,77117.94
2022-11-17T02:15:15.734Z,77117.94
2022-11-17T02:17:43.630Z,77124.03
2022-11-17T02:20:13.471Z,77119.97
2022-11-17T02:23:07.260Z,77132.16
2022-11-17T02:26:11.755Z,77119.97
2022-11-17T02:28:49.247Z,77119.97
2022-11-17T02:31:40.307Z,77122.00
2022-11-17T02:34:42.591Z,77124.03
2022-11-17T02:37:27.528Z,77130.13
2022-11-17T02:40:09.474Z,77132.16
2022-11-17T02:43:06.174Z,77136.19
2022-11-17T02:45:42.099Z,77132.16
2022-11-17T02:48:16.176Z,77132.16
2022-11-17T02:50:46.470Z,77130.13
2022-11-17T02:53:14.911Z,77134.16
2022-11-17T02:55:49.743Z,77132.16
2022-11-17T02:58:16.513Z,77140.25
2022-11-17T03:01:10.589Z,77140.25
2022-11-17T03:04:05.418Z,77144.31
2022-11-17T03:06:51.973Z,77144.31
2022-11-17T03:09:28.592Z,77144.31
2022-11-17T03:12:30.746Z,77144.31
2022-11-17T03:15:21.028Z,77140.25
2022-11-17T03:18:10.853Z,77146.34
2022-11-17T03:21:05.899Z,77144.31
2022-11-17T03:23:39.078Z,77148.38
2022-11-17T03:26:09.842Z,77144.31
2022-11-17T03:28:39.043Z,77144.31
2022-11-17T03:31:09.360Z,77146.34
2022-11-17T03:33:39.769Z,77144.31
2022-11-17T03:36:13.151Z,77150.41
2022-11-17T03:38:59.341Z,77150.41
2022-11-17T03:41:30.402Z,77148.38
2022-11-17T03:43:59.115Z,77156.47
2022-11-17T03:46:29.894Z,77154.44
2022-11-17T03:49:18.787Z,77160.53
2022-11-17T03:51:45.973Z,77164.59
2022-11-17T03:54:14.921Z,77164.59
2022-11-17T03:56:54.008Z,77152.41
2022-11-17T03:59:35.559Z,77160.53
2022-11-17T04:02:02.760Z,77156.47
2022-11-17T04:04:50.176Z,77160.53
2022-11-17T04:07:17.112Z,77164.59
2022-11-17T04:09:44.342Z,77156.47
2022-11-17T04:12:29.905Z,77152.41
2022-11-17T04:15:15.781Z,77156.47
2022-11-17T04:17:42.657Z,77156.47
2022-11-17T04:20:10.433Z,77158.50
2022-11-17T04:22:37.530Z,77164.59
2022-11-17T04:25:06.212Z,77168.63
2022-11-17T04:27:51.813Z,77168.63
2022-11-17T04:30:19.431Z,77170.66
2022-11-17T04:32:46.641Z,77164.59
2022-11-17T04:35:14.162Z,77172.69
2022-11-17T04:37:41.179Z,77180.81
2022-11-17T04:40:09.097Z,77180.81
2022-11-17T04:42:35.946Z,77184.84
2022-11-17T04:45:03.268Z,77178.78
2022-11-17T04:47:30.151Z,77180.81
2022-11-17T04:49:57.292Z,77176.75
2022-11-17T04:52:28.446Z,77184.84
2022-11-17T04:54:56.975Z,77180.81
2022-11-17T04:57:24.090Z,77180.81
2022-11-17T04:59:51.194Z,77176.75
2022-11-17T05:02:18.077Z,77180.81
2022-11-17T05:04:57.297Z,77188.91
2022-11-17T05:07:24.436Z,77192.97
2022-11-17T05:09:51.589Z,77186.88
2022-11-17T05:12:36.677Z,77192.97
2022-11-17T05:15:04.203Z,77190.94
2022-11-17T05:17:31.096Z,77184.84
2022-11-17T05:19:58.454Z,77188.91
2022-11-17T05:22:43.836Z,77192.97
2022-11-17T05:25:11.041Z,77188.91
2022-11-17T05:27:37.963Z,77176.75
2022-11-17T05:30:07.495Z,77180.81
2022-11-17T05:32:34.369Z,77180.81
2022-11-17T05:35:01.909Z,77182.84
2022-11-17T05:37:28.952Z,77180.81
2022-11-17T05:39:56.121Z,77180.81
2022-11-17T05:42:22.880Z,77180.81
2022-11-17T05:44:50.145Z,77176.75
2022-11-17T05:47:16.919Z,77182.84
2022-11-17T05:49:44.166Z,77186.88
2022-11-17T05:52:11.295Z,77192.97
2022-11-17T05:54:38.449Z,77192.97
2022-11-17T05:57:09.678Z,77197.03
2022-11-17T05:59:45.395Z,77192.97
2022-11-17T06:02:14.459Z,77188.91
2022-11-17T06:04:43.680Z,77188.91
2022-11-17T06:07:11.238Z,77190.94
2022-11-17T06:09:41.483Z,77197.03
2022-11-17T06:12:09.608Z,77213.25
2022-11-17T06:14:39.288Z,77209.19
2022-11-17T06:17:23.288Z,77201.06
2022-11-17T06:20:05.775Z,77205.13
2022-11-17T06:22:34.112Z,77209.19
2022-11-17T06:25:03.420Z,77201.06
2022-11-17T06:27:32.504Z,77209.19
2022-11-17T06:30:03.761Z,77201.06
2022-11-17T06:32:34.285Z,77201.06
2022-11-17T06:35:06.090Z,77205.13
2022-11-17T06:37:33.342Z,77209.19
2022-11-17T06:40:00.473Z,77209.19
2022-11-17T06:42:46.759Z,77207.16
2022-11-17T06:45:13.914Z,77205.13
2022-11-17T06:47:41.123Z,77197.03
2022-11-17T06:50:08.405Z,77192.97
2022-11-17T06:52:35.714Z,77192.97
2022-11-17T06:55:02.535Z,77192.97
2022-11-17T06:57:30.248Z,77188.91
2022-11-17T06:59:57.453Z,77192.97
2022-11-17T07:02:25.135Z,77192.97
2022-11-17T07:04:52.127Z,77192.97
2022-11-17T07:07:20.662Z,77201.06
2022-11-17T07:09:52.157Z,77209.19
2022-11-17T07:12:22.681Z,77207.16
2022-11-17T07:14:49.998Z,77209.19
2022-11-17T07:17:17.087Z,77219.31
2022-11-17T07:19:44.111Z,77217.28
2022-11-17T07:22:11.488Z,77215.28
2022-11-17T07:24:38.349Z,77213.25
2022-11-17T07:27:06.686Z,77213.25
2022-11-17T07:29:33.473Z,77221.34
2022-11-17T07:32:00.976Z,77225.41
2022-11-17T07:34:27.880Z,77233.53
2022-11-17T07:36:55.057Z,77251.75
2022-11-17T07:39:23.053Z,77261.91
2022-11-17T07:41:50.269Z,77265.97
2022-11-17T07:44:17.079Z,77270.00
2022-11-17T07:46:44.388Z,77282.19
2022-11-17T07:49:11.429Z,77278.13
2022-11-17T07:51:38.643Z,77265.97
2022-11-17T07:54:05.779Z,77274.06
2022-11-17T07:56:34.449Z,77282.19
2022-11-17T07:59:01.303Z,77278.13
2022-11-17T08:01:28.542Z,77265.97
2022-11-17T08:03:58.484Z,77267.97
2022-11-17T08:06:26.681Z,77265.97
2022-11-17T08:08:54.846Z,77265.97
2022-11-17T08:11:23.220Z,77274.06
2022-11-17T08:13:50.906Z,77270.00
2022-11-17T08:16:18.370Z,77270.00
2022-11-17T08:18:51.812Z,77278.13
2022-11-17T08:21:19.923Z,77274.06
2022-11-17T08:23:50.355Z,77274.06
2022-11-17T08:26:17.674Z,77274.06
2022-11-17T08:28:44.648Z,77274.06
2022-11-17T08:31:12.850Z,77272.03
2022-11-17T08:33:39.985Z,77274.06
2022-11-17T08:36:07.576Z,77261.91
2022-11-17T08:38:36.256Z,77265.97
2022-11-17T08:41:08.236Z,77257.84
2022-11-17T08:43:35.930Z,77261.91
2022-11-17T08:46:03.440Z,77261.91
2022-11-17T08:48:31.896Z,77257.84
2022-11-17T08:51:07.581Z,77253.78
2022-11-17T08:53:35.399Z,77257.84
2022-11-17T08:56:09.159Z,77253.78
2022-11-17T08:58:44.600Z,77261.91
2022-11-17T09:01:15.969Z,77261.91
2022-11-17T09:03:45.080Z,77276.09
2022-11-17T09:06:13.149Z,77267.97
2022-11-17T09:08:47.822Z,77270.00
2022-11-17T09:11:16.744Z,77265.97
2022-11-17T09:13:45.950Z,77272.03
2022-11-17T09:16:14.588Z,77282.19
2022-11-17T09:18:43.550Z,77276.09
2022-11-17T09:21:13.867Z,77278.13
2022-11-17T09:23:41.396Z,77265.97
2022-11-17T09:26:11.797Z,77265.97
2022-11-17T09:28:39.615Z,77253.78
2022-11-17T09:31:12.964Z,77249.75
2022-11-17T09:33:40.597Z,77255.81
2022-11-17T09:36:08.737Z,77257.84
2022-11-17T09:38:37.801Z,77257.84
2022-11-17T09:41:17.613Z,77257.84
2022-11-17T09:44:12.216Z,77261.91
2022-11-17T09:46:51.255Z,77265.97
2022-11-17T09:49:43.655Z,77274.06
2022-11-17T09:52:36.580Z,77278.13
2022-11-17T09:55:09.647Z,77259.88
2022-11-17T09:57:42.274Z,77270.00
2022-11-17T10:00:21.176Z,77257.84
2022-11-17T10:02:50.726Z,77253.78
2022-11-17T10:05:26.854Z,77249.75
2022-11-17T10:07:59.965Z,77241.63
2022-11-17T10:10:39.167Z,77233.53
2022-11-17T10:13:15.097Z,77233.53
2022-11-17T10:15:47.644Z,77235.53
2022-11-17T10:18:16.415Z,77233.53
2022-11-17T10:20:44.491Z,77233.53
2022-11-17T10:23:18.421Z,77237.56
2022-11-17T10:25:57.444Z,77233.53
2022-11-17T10:28:30.128Z,77217.28
2022-11-17T10:31:11.513Z,77221.34
2022-11-17T10:33:42.102Z,77241.63
2022-11-17T10:36:20.361Z,77229.47
2022-11-17T10:38:55.896Z,77225.41
2022-11-17T10:41:26.542Z,77247.72
2022-11-17T10:43:59.939Z,77253.78
2022-11-17T10:46:32.145Z,77257.84
2022-11-17T10:49:24.800Z,77261.91
2022-11-17T10:52:11.929Z,77241.63
2022-11-17T10:54:39.257Z,77229.47
2022-11-17T10:57:12.504Z,77227.44
2022-11-17T10:59:47.893Z,77225.41
2022-11-17T11:02:39.213Z,77225.41
2022-11-17T11:05:26.324Z,77233.53
2022-11-17T11:08:23.444Z,77229.47
2022-11-17T11:11:32.041Z,77213.25
2022-11-17T11:14:12.396Z,77211.22
2022-11-17T11:16:46.601Z,77209.19
2022-11-17T11:19:17.674Z,77213.25
2022-11-17T11:22:06.950Z,77205.13
2022-11-17T11:24:57.481Z,77197.03
2022-11-17T11:27:45.898Z,77188.91
2022-11-17T11:30:17.124Z,77172.69
2022-11-17T11:33:08.730Z,77164.59
2022-11-17T11:36:15.210Z,77156.47
2022-11-17T11:38:48.736Z,77176.75
2022-11-17T11:41:33.536Z,77176.75
2022-11-17T11:44:25.797Z,77170.66
2022-11-17T11:47:02.292Z,77162.56
2022-11-17T11:49:29.826Z,77154.44
2022-11-17T11:51:57.543Z,77148.38
2022-11-17T11:54:31.503Z,77140.25
2022-11-17T11:56:58.776Z,77136.19
2022-11-17T11:59:38.182Z,77144.31
2022-11-17T12:02:11.015Z,77148.38
2022-11-17T12:04:38.555Z,77156.47
2022-11-17T12:07:21.548Z,77166.59
2022-11-17T12:10:14.133Z,77160.53
2022-11-17T12:12:45.905Z,77156.47
2022-11-17T12:15:19.345Z,77188.91
2022-11-17T12:17:52.603Z,77144.31
2022-11-17T12:20:46.851Z,77148.38
2022-11-17T12:23:25.553Z,77144.31
2022-11-17T12:25:57.117Z,77144.31
2022-11-17T12:28:32.167Z,77152.41
2022-11-17T12:31:08.319Z,77160.53
2022-11-17T12:33:59.919Z,77160.53
2022-11-17T12:36:32.432Z,77156.47
2022-11-17T12:39:01.321Z,77156.47
2022-11-17T12:42:04.387Z,77144.31
2022-11-17T12:44:37.497Z,77140.25
2022-11-17T12:47:15.174Z,77160.53
2022-11-17T12:50:17.293Z,77172.69
2022-11-17T12:53:08.085Z,77180.81
2022-11-17T12:55:35.281Z,77184.84
2022-11-17T12:58:30.166Z,77192.97
2022-11-17T13:01:19.274Z,77188.91
2022-11-17T13:03:54.791Z,77184.84
2022-11-17T13:06:35.286Z,77166.59
2022-11-17T13:09:06.997Z,77158.50
2022-11-17T13:11:34.673Z,77144.31
2022-11-17T13:14:14.964Z,77136.19
2022-11-17T13:16:48.218Z,77124.03
2022-11-17T13:19:40.032Z,77107.81
2022-11-17T13:22:21.447Z,77087.53
2022-11-17T13:24:51.018Z,77083.50
2022-11-17T13:27:29.085Z,77079.44
2022-11-17T13:30:21.251Z,77081.47
2022-11-17T13:32:50.083Z,77087.53
2022-11-17T13:35:20.592Z,77097.69
2022-11-17T13:38:22.527Z,77099.72
2022-11-17T13:40:52.267Z,77107.81
2022-11-17T13:43:25.622Z,77119.97
2022-11-17T13:45:56.727Z,77124.03
2022-11-17T13:48:44.853Z,77119.97
2022-11-17T13:51:24.844Z,77128.09
2022-11-17T13:54:16.858Z,77130.13
2022-11-17T13:56:47.065Z,77136.19
2022-11-17T13:59:20.024Z,77142.28
2022-11-17T14:01:47.313Z,77144.31
2022-11-17T14:04:19.527Z,77140.25
2022-11-17T14:07:01.767Z,77144.31
2022-11-17T14:09:31.501Z,77164.59
2022-11-17T14:11:59.254Z,77156.47
2022-11-17T14:14:55.907Z,77184.84
2022-11-17T14:17:23.560Z,77192.97
2022-11-17T14:19:50.680Z,77199.06
2022-11-17T14:22:23.528Z,77205.13
2022-11-17T14:24:54.489Z,77213.25
2022-11-17T14:27:27.751Z,77213.25
2022-11-17T14:29:55.235Z,77219.31
2022-11-17T14:32:22.458Z,77229.47
2022-11-17T14:34:49.607Z,77235.53
2022-11-17T14:37:17.669Z,77245.69
2022-11-17T14:39:44.520Z,77257.84
2022-11-17T14:42:11.616Z,77257.84
2022-11-17T14:44:38.377Z,77261.91
2022-11-17T14:47:05.716Z,77265.97
2022-11-17T14:49:32.675Z,77270.00
2022-11-17T14:52:00.564Z,77278.13
2022-11-17T14:54:27.876Z,77290.28
2022-11-17T14:56:55.168Z,77300.44
2022-11-17T14:59:21.978Z,77306.50
2022-11-17T15:01:49.509Z,77314.63
2022-11-17T15:04:48.182Z,77326.78
2022-11-17T15:07:04.112Z,77334.91
2022-11-17T15:09:31.255Z,77343.00
2022-11-17T15:11:58.513Z,77343.00
2022-11-17T15:14:25.579Z,77347.06
2022-11-17T15:16:52.864Z,77355.16
2022-11-17T15:19:20.232Z,77359.22
2022-11-17T15:21:47.577Z,77359.22
2022-11-17T15:24:14.905Z,77367.34
2022-11-17T15:26:42.613Z,77375.44
2022-11-17T15:29:14.252Z,77375.44
2022-11-17T15:31:42.211Z,77379.50
2022-11-17T15:34:17.171Z,77389.63
2022-11-17T15:36:48.600Z,77387.59
2022-11-17T15:39:16.553Z,77391.66
2022-11-17T15:41:44.662Z,77391.66
2022-11-17T15:44:11.626Z,77393.69
2022-11-17T15:46:44.334Z,77387.59
2022-11-17T15:49:14.278Z,77389.63
2022-11-17T15:51:42.075Z,77395.72
2022-11-17T15:54:18.212Z,77399.78
2022-11-17T15:56:47.552Z,77403.84
2022-11-17T15:59:14.768Z,77416.00
2022-11-17T16:01:42.339Z,77411.94
2022-11-17T16:04:11.450Z,77416.00
2022-11-17T16:06:43.815Z,77413.97
2022-11-17T16:09:13.083Z,77407.88
2022-11-17T16:11:40.970Z,77395.72
2022-11-17T16:14:08.370Z,77391.66
2022-11-17T16:16:38.703Z,77387.59
2022-11-17T16:19:06.307Z,77379.50
2022-11-17T16:21:33.660Z,77367.34
2022-11-17T16:24:02.076Z,77355.16
2022-11-17T16:26:31.058Z,77347.06
2022-11-17T16:29:00.408Z,77343.00
2022-11-17T16:31:31.093Z,77343.00
2022-11-17T16:34:03.273Z,77334.91
2022-11-17T16:36:36.187Z,77326.78
2022-11-17T16:39:06.549Z,77322.72
2022-11-17T16:41:36.441Z,77326.78
2022-11-17T16:44:12.033Z,77326.78
2022-11-17T16:46:43.336Z,77334.91
2022-11-17T16:49:13.708Z,77334.91
2022-11-17T16:51:47.156Z,77338.94
2022-11-17T16:54:14.257Z,77334.91
2022-11-17T16:56:41.983Z,77340.97
2022-11-17T16:59:11.234Z,77351.13
2022-11-17T17:01:38.917Z,77343.00
2022-11-17T17:04:08.441Z,77336.91
2022-11-17T17:06:37.429Z,77334.91
2022-11-17T17:09:07.265Z,77326.78
2022-11-17T17:11:36.189Z,77318.66
2022-11-17T17:14:05.062Z,77318.66
2022-11-17T17:16:34.333Z,77314.63
2022-11-17T17:19:07.817Z,77314.63
2022-11-17T17:21:36.250Z,77302.44
2022-11-17T17:24:04.086Z,77294.34
2022-11-17T17:26:33.181Z,77290.28
2022-11-17T17:29:02.140Z,77286.22
2022-11-17T17:31:32.259Z,77278.13
2022-11-17T17:34:00.127Z,77274.06
2022-11-17T17:36:28.313Z,77276.09
2022-11-17T17:38:57.179Z,77274.06
2022-11-17T17:41:26.975Z,77261.91
2022-11-17T17:43:57.027Z,77261.91
2022-11-17T17:46:24.717Z,77265.97
2022-11-17T17:48:51.946Z,77253.78
2022-11-17T17:51:21.582Z,77247.72
2022-11-17T17:53:51.763Z,77249.75
2022-11-17T17:56:21.366Z,77253.78
2022-11-17T17:58:51.878Z,77265.97
2022-11-17T18:01:20.833Z,77267.97
2022-11-17T18:03:49.857Z,77265.97
2022-11-17T18:06:19.810Z,77265.97
2022-11-17T18:08:47.520Z,77267.97
2022-11-17T18:11:18.402Z,77282.19
2022-11-17T18:13:47.800Z,77290.28
2022-11-17T18:16:19.329Z,77290.28
2022-11-17T18:18:46.294Z,77292.31
2022-11-17T18:21:16.107Z,77302.44
2022-11-17T18:23:44.669Z,77292.31
2022-11-17T18:26:20.036Z,77294.34
2022-11-17T18:28:58.902Z,77294.34
2022-11-17T18:31:28.939Z,77298.41
2022-11-17T18:34:12.869Z,77294.34
2022-11-17T18:36:40.385Z,77298.41
2022-11-17T18:39:07.448Z,77304.47
2022-11-17T18:41:35.744Z,77310.56
2022-11-17T18:44:02.951Z,77302.44
2022-11-17T18:46:31.672Z,77306.50
2022-11-17T18:48:59.127Z,77314.63
2022-11-17T18:51:29.485Z,77306.50
2022-11-17T18:53:59.799Z,77306.50
2022-11-17T18:56:31.133Z,77300.44
2022-11-17T18:58:58.204Z,77306.50
2022-11-17T19:01:30.359Z,77302.44
2022-11-17T19:04:02.183Z,77310.56
2022-11-17T19:06:30.198Z,77298.41
2022-11-17T19:09:00.446Z,77294.34
2022-11-17T19:11:30.838Z,77286.22
2022-11-17T19:13:59.975Z,77280.16
2022-11-17T19:16:27.234Z,77278.13
2022-11-17T19:18:55.973Z,77276.09
2022-11-17T19:21:26.056Z,77270.00
2022-11-17T19:23:54.688Z,77272.03
2022-11-17T19:26:28.558Z,77265.97
2022-11-17T19:28:56.899Z,77276.09
2022-11-17T19:31:24.482Z,77282.19
2022-11-17T19:33:51.394Z,77290.28
2022-11-17T19:36:24.004Z,77282.19
2022-11-17T19:38:53.050Z,77282.19
2022-11-17T19:41:25.791Z,77288.25
2022-11-17T19:43:56.947Z,77290.28
2022-11-17T19:46:26.610Z,77282.19
2022-11-17T19:48:54.653Z,77278.13
2022-11-17T19:51:23.073Z,77278.13
2022-11-17T19:53:52.075Z,77282.19
2022-11-17T19:56:20.163Z,77282.19
2022-11-17T19:58:48.411Z,77282.19
2022-11-17T20:01:21.712Z,77274.06
2022-11-17T20:03:49.332Z,77278.13
2022-11-17T20:06:20.362Z,77278.13
2022-11-17T20:08:48.492Z,77282.19
2022-11-17T20:11:21.869Z,77278.13
2022-11-17T20:13:49.565Z,77282.19
2022-11-17T20:16:24.802Z,77278.13
2022-11-17T20:18:54.600Z,77272.03
2022-11-17T20:21:22.957Z,77274.06
2022-11-17T20:23:49.955Z,77257.84
2022-11-17T20:26:20.270Z,77253.78
2022-11-17T20:28:48.281Z,77249.75
2022-11-17T20:31:21.537Z,77249.75
2022-11-17T20:33:49.071Z,77253.78
2022-11-17T20:36:19.257Z,77249.75
2022-11-17T20:38:50.979Z,77249.75
2022-11-17T20:41:20.833Z,77241.63
2022-11-17T20:43:49.178Z,77233.53
2022-11-17T20:46:17.434Z,77247.72
2022-11-17T20:48:44.975Z,77245.69
2022-11-17T20:51:14.311Z,77257.84
2022-11-17T20:53:42.285Z,77247.72
2022-11-17T20:56:11.791Z,77253.78
2022-11-17T20:58:39.846Z,77257.84
2022-11-17T21:01:15.859Z,77270.00
2022-11-17T21:03:45.517Z,77265.97
2022-11-17T21:06:14.186Z,77282.19
2022-11-17T21:08:42.735Z,77286.22
2022-11-17T21:11:37.210Z,77286.22
2022-11-17T21:14:05.684Z,77282.19
2022-11-17T21:16:34.086Z,77290.28
2022-11-17T21:19:00.964Z,77290.28
2022-11-17T21:21:28.485Z,77290.28
2022-11-17T21:23:55.740Z,77296.38
2022-11-17T21:26:23.857Z,77290.28
2022-11-17T21:28:51.482Z,77298.41
2022-11-17T21:31:24.032Z,77290.28
2022-11-17T21:33:59.455Z,77286.22
2022-11-17T21:36:29.513Z,77294.34
2022-11-17T21:38:57.346Z,77286.22
2022-11-17T21:41:35.406Z,77302.44
2022-11-17T21:44:03.361Z,77300.44
2022-11-17T21:46:32.992Z,77306.50
2022-11-17T21:49:00.688Z,77310.56
2022-11-17T21:51:33.566Z,77314.63
2022-11-17T21:54:04.826Z,77318.66
2022-11-17T21:56:33.642Z,77322.72
2022-11-17T21:59:13.176Z,77326.78
2022-11-17T22:01:40.880Z,77326.78
2022-11-17T22:04:07.776Z,77326.78
2022-11-17T22:06:34.960Z,77338.94
2022-11-17T22:09:01.885Z,77340.97
2022-11-17T22:11:37.172Z,77340.97
2022-11-17T22:14:05.950Z,77351.13
2022-11-17T22:16:34.384Z,77347.06
2022-11-17T22:19:01.997Z,77347.06
2022-11-17T22:21:29.264Z,77355.16
2022-11-17T22:23:56.200Z,77347.06
2022-11-17T22:26:23.864Z,77343.00
2022-11-17T22:28:55.182Z,77338.94
2022-11-17T22:31:23.088Z,77334.91
2022-11-17T22:33:51.066Z,77332.88
2022-11-17T22:36:18.736Z,77334.91
2022-11-17T22:38:49.930Z,77338.94
2022-11-17T22:41:17.422Z,77338.94
2022-11-17T22:43:48.580Z,77338.94
2022-11-17T22:46:15.590Z,77338.94
2022-11-17T22:48:42.517Z,77334.91
2022-11-17T22:51:09.804Z,77332.88
2022-11-17T22:53:36.720Z,77330.84
2022-11-17T22:56:06.309Z,77330.84
2022-11-17T22:58:34.522Z,77338.94
2022-11-17T23:01:06.677Z,77336.91
2022-11-17T23:03:33.990Z,77338.94
2022-11-17T23:06:03.133Z,77316.66
2022-11-17T23:08:30.643Z,77306.50
2022-11-17T23:11:35.435Z,77308.53
2022-11-17T23:13:53.751Z,77306.50
2022-11-17T23:16:22.498Z,77302.44
2022-11-17T23:18:53.407Z,77302.44
2022-11-17T23:21:21.058Z,77290.28
2022-11-17T23:23:47.888Z,77290.28
2022-11-17T23:26:15.203Z,77286.22
2022-11-17T23:28:43.052Z,77294.34
2022-11-17T23:31:13.150Z,77282.19
2022-11-17T23:33:42.648Z,77276.09
2022-11-17T23:36:15.875Z,77265.97
2022-11-17T23:38:42.859Z,77261.91
2022-11-17T23:41:13.246Z,77257.84
2022-11-17T23:43:40.903Z,77253.78
2022-11-17T23:46:13.445Z,77257.84
2022-11-17T23:48:41.015Z,77259.88
2022-11-17T23:51:10.630Z,77261.91
2022-11-17T23:53:37.979Z,77261.91
2022-11-17T23:56:06.562Z,77261.91
2022-11-17T23:58:33.688Z,77263.94
